ADDS TAF Data INFO
IDs: Format: Raw Decoded Include METARs

Data at: 0304 UTC 17 Jan 2018

KRSW 162327Z 1700/1724 VRB05KT P6SM BKN300
  FM170900 VRB04KT 6SM BR FEW010 BKN250
  FM171400 36008KT P6SM SCT020 SCT300
  FM172000 32012G19KT P6SM SCT040